Time;durP1;ratioP1;P1;durP2;ratioP2;P2;SDS_P1;SDS_P2;PMS_P1;PMS_P2;Temp;Humidity;BMP_temperature;BMP_pressure;BME280_temperature;BME280_humidity;BME280_pressure;Samples;Min_cycle;Max_cycle;Signal;HPM_P1;HPM_P2
2021/12/20 00:01:56;;;;;;;8.10;3.83;;;8.30;99.90;;;;;;5057879;28;20416;-84
2021/12/20 00:04:22;;;;;;;7.70;3.70;;;8.30;99.90;;;;;;5077489;28;20419;-82
2021/12/20 00:06:48;;;;;;;12.87;4.10;;;8.30;99.90;;;;;;5061707;28;20420;-83
2021/12/20 00:09:13;;;;;;;8.07;3.27;;;8.30;99.90;;;;;;5061275;28;20431;-82
2021/12/20 00:11:39;;;;;;;9.37;3.83;;;8.50;99.90;;;;;;5052854;28;20190;-83
2021/12/20 00:14:05;;;;;;;4.73;3.53;;;8.30;99.90;;;;;;5042258;28;20946;-83
2021/12/20 00:16:31;;;;;;;11.20;4.03;;;8.40;99.90;;;;;;5025389;28;20240;-82
2021/12/20 00:18:56;;;;;;;8.30;3.40;;;8.30;99.90;;;;;;5042031;28;20190;-83
2021/12/20 00:21:22;;;;;;;7.00;3.30;;;8.30;99.90;;;;;;5044324;28;20185;-83
2021/12/20 00:23:48;;;;;;;6.93;2.80;;;8.40;99.90;;;;;;5061985;28;20181;-83
2021/12/20 00:26:14;;;;;;;11.37;3.87;;;8.10;99.90;;;;;;5032286;28;20186;-83
2021/12/20 00:28:39;;;;;;;4.30;3.20;;;8.40;99.90;;;;;;5061752;28;20454;-82
2021/12/20 00:31:06;;;;;;;7.37;4.10;;;8.20;99.90;;;;;;5056344;28;20653;-84
2021/12/20 00:33:35;;;;;;;7.10;3.90;;;8.20;99.90;;;;;;5041766;28;20158;-83
2021/12/20 00:36:02;;;;;;;7.67;3.07;;;8.20;99.90;;;;;;5057966;28;20424;-83
2021/12/20 00:41:12;;;;;;;6.93;3.70;;;8.30;99.90;;;;;;5064425;28;20506;-83
2021/12/20 00:43:38;;;;;;;7.57;3.50;;;8.00;99.90;;;;;;5043928;28;20474;-84
2021/12/20 00:46:04;;;;;;;10.80;4.70;;;7.90;99.90;;;;;;5069174;28;20427;-83
2021/12/20 00:48:29;;;;;;;12.10;3.87;;;8.00;99.90;;;;;;5008553;28;20222;-83
2021/12/20 00:50:55;;;;;;;5.83;3.30;;;8.30;99.90;;;;;;5025140;28;20186;-83
2021/12/20 00:53:22;;;;;;;9.30;3.77;;;8.20;99.90;;;;;;5025881;28;20281;-84
2021/12/20 00:55:48;;;;;;;6.73;3.17;;;8.00;99.90;;;;;;5043325;28;20198;-83
2021/12/20 00:58:14;;;;;;;10.43;3.70;;;8.00;99.90;;;;;;5060873;28;20467;-81
2021/12/20 01:00:48;;;;;;;8.90;3.67;;;8.10;99.90;;;;;;5045023;28;20466;-83
2021/12/20 01:03:15;;;;;;;9.53;3.30;;;7.90;99.90;;;;;;5043547;28;20905;-81
2021/12/20 01:05:42;;;;;;;10.30;3.57;;;7.90;99.90;;;;;;5041551;28;20527;-83
2021/12/20 01:08:08;;;;;;;9.27;3.47;;;7.90;99.90;;;;;;5057275;28;20447;-83
2021/12/20 01:10:37;;;;;;;7.97;3.40;;;7.90;99.90;;;;;;5059932;28;20452;-82
2021/12/20 01:13:04;;;;;;;10.83;4.30;;;8.00;99.90;;;;;;5059688;28;20423;-83
2021/12/20 01:15:33;;;;;;;11.13;4.57;;;8.10;99.90;;;;;;5043897;28;20995;-83
2021/12/20 01:17:59;;;;;;;7.57;3.93;;;8.00;99.90;;;;;;5031143;28;20483;-83
2021/12/20 01:20:25;;;;;;;14.70;3.40;;;8.10;99.90;;;;;;5060572;28;20469;-84
2021/12/20 01:22:51;;;;;;;7.37;3.43;;;7.90;99.90;;;;;;5047512;28;20431;-84
2021/12/20 01:25:18;;;;;;;7.30;3.10;;;8.20;99.90;;;;;;5034346;28;20218;-81
2021/12/20 01:27:44;;;;;;;7.40;3.50;;;8.00;99.90;;;;;;5041260;28;20478;-84
2021/12/20 01:30:12;;;;;;;10.10;3.50;;;7.90;99.90;;;;;;5077926;28;20423;-82
2021/12/20 01:32:39;;;;;;;10.20;2.90;;;8.00;99.90;;;;;;5044801;28;20427;-83
2021/12/20 01:35:05;;;;;;;10.93;4.00;;;8.00;99.90;;;;;;5077236;28;20427;-83
2021/12/20 01:37:31;;;;;;;8.33;3.57;;;7.80;99.90;;;;;;5040684;28;20510;-83
2021/12/20 01:39:59;;;;;;;6.47;2.87;;;7.80;99.90;;;;;;5058072;28;20432;-84
2021/12/20 01:42:27;;;;;;;9.03;3.90;;;7.80;99.90;;;;;;5039165;28;20202;-82
2021/12/20 01:44:56;;;;;;;13.07;3.23;;;7.90;99.90;;;;;;5075108;28;20420;-82
2021/12/20 01:47:33;;;;;;;8.90;3.50;;;7.90;99.90;;;;;;5044944;28;20470;-83
2021/12/20 01:50:04;;;;;;;10.57;3.20;;;7.80;99.90;;;;;;5069045;28;20427;-81
2021/12/20 01:52:39;;;;;;;8.63;3.33;;;7.80;99.90;;;;;;5041562;28;20440;-82
2021/12/20 01:55:08;;;;;;;11.77;3.60;;;8.10;99.90;;;;;;5058699;28;20428;-83
2021/12/20 01:57:34;;;;;;;8.97;3.13;;;7.90;99.90;;;;;;5054600;28;20486;-82
2021/12/20 02:00:00;;;;;;;10.03;4.03;;;7.80;99.90;;;;;;5060414;28;20803;-83
2021/12/20 02:02:26;;;;;;;9.23;3.40;;;8.00;99.90;;;;;;5040256;28;20936;-82
2021/12/20 02:05:00;;;;;;;8.40;2.63;;;7.70;99.90;;;;;;5075189;28;20436;-84
2021/12/20 02:07:37;;;;;;;8.67;3.67;;;7.80;99.90;;;;;;5033773;28;20206;-84
2021/12/20 02:10:03;;;;;;;9.33;3.70;;;7.60;99.90;;;;;;5062222;28;20419;-83
2021/12/20 02:12:29;;;;;;;8.63;2.33;;;7.60;99.90;;;;;;5056090;28;20432;-83
2021/12/20 02:14:55;;;;;;;12.27;3.63;;;7.80;99.90;;;;;;5059306;28;20465;-84
2021/12/20 02:17:21;;;;;;;10.33;2.70;;;7.60;99.90;;;;;;5047119;28;20467;-81
2021/12/20 02:19:46;;;;;;;8.27;2.37;;;7.50;99.90;;;;;;5064769;28;20649;-82
2021/12/20 02:22:12;;;;;;;8.97;2.93;;;7.40;99.90;;;;;;5044974;28;20177;-84
2021/12/20 02:24:38;;;;;;;6.27;2.80;;;7.60;99.90;;;;;;5061196;28;20186;-84
2021/12/20 02:27:03;;;;;;;4.70;2.00;;;7.50;99.90;;;;;;5060245;28;20181;-82
2021/12/20 02:29:43;;;;;;;5.90;2.33;;;7.50;99.90;;;;;;5059076;28;20709;-82
2021/12/20 02:37:37;;;;;;;13.80;2.83;;;7.30;99.90;;;;;;5066144;28;20496;-84
2021/12/20 02:40:04;;;;;;;9.60;2.63;;;7.40;99.90;;;;;;5030986;28;20459;-83
2021/12/20 02:42:38;;;;;;;8.97;3.00;;;7.40;99.90;;;;;;5080641;28;20224;-83
2021/12/20 02:45:14;;;;;;;11.20;2.80;;;7.40;99.90;;;;;;5058468;28;20473;-82
2021/12/20 02:47:45;;;;;;;9.27;2.60;;;7.20;99.90;;;;;;5055519;28;20446;-83
2021/12/20 02:50:12;;;;;;;6.23;2.87;;;7.20;99.90;;;;;;5063686;28;21066;-83
2021/12/20 02:52:39;;;;;;;10.87;4.00;;;7.40;99.90;;;;;;5047605;28;20462;-82
2021/12/20 02:55:07;;;;;;;13.30;3.17;;;7.40;99.90;;;;;;5045965;28;20433;-84
2021/12/20 02:57:35;;;;;;;12.70;3.00;;;7.30;99.90;;;;;;5062094;28;20475;-83
2021/12/20 03:00:00;;;;;;;13.40;3.40;;;7.00;99.90;;;;;;5060755;28;20597;-82
2021/12/20 03:02:26;;;;;;;9.67;3.20;;;7.30;99.90;;;;;;5047018;28;20462;-83
2021/12/20 03:04:52;;;;;;;9.50;3.90;;;7.20;99.90;;;;;;5046828;28;20512;-83
2021/12/20 03:07:25;;;;;;;10.20;3.03;;;7.30;99.90;;;;;;5031136;28;20223;-82
2021/12/20 03:09:59;;;;;;;12.70;3.10;;;7.10;99.90;;;;;;5063934;28;20203;-83
2021/12/20 03:12:28;;;;;;;7.47;2.40;;;7.20;99.90;;;;;;5061060;28;20454;-84
2021/12/20 03:15:01;;;;;;;10.17;2.53;;;7.20;99.90;;;;;;5046862;28;20431;-82
2021/12/20 03:17:26;;;;;;;10.37;3.40;;;7.20;99.90;;;;;;5063051;28;20475;-82
2021/12/20 03:19:52;;;;;;;9.03;4.53;;;7.20;99.90;;;;;;5032986;28;20600;-83
2021/12/20 03:22:18;;;;;;;9.50;2.40;;;7.00;99.90;;;;;;5063264;28;20200;-84
2021/12/20 03:24:44;;;;;;;9.17;3.00;;;7.10;99.90;;;;;;5049513;28;20654;-83
2021/12/20 03:27:10;;;;;;;9.20;2.60;;;7.20;99.90;;;;;;5068528;28;20431;-83
2021/12/20 03:29:36;;;;;;;15.00;3.60;;;7.20;99.90;;;;;;5047978;28;20381;-85
2021/12/20 03:32:02;;;;;;;6.70;2.67;;;7.10;99.90;;;;;;5062761;28;20247;-84
2021/12/20 03:34:28;;;;;;;12.63;3.93;;;7.10;99.90;;;;;;5030592;28;20654;-83
2021/12/20 03:36:53;;;;;;;8.80;2.57;;;7.00;99.90;;;;;;5079838;28;20471;-82
2021/12/20 03:39:19;;;;;;;12.50;2.90;;;7.20;99.90;;;;;;5040431;28;20186;-84
2021/12/20 03:41:45;;;;;;;10.90;3.33;;;7.20;99.90;;;;;;5026581;28;20273;-84
2021/12/20 03:44:11;;;;;;;11.77;2.80;;;7.10;99.90;;;;;;5040063;28;20459;-83
2021/12/20 03:46:37;;;;;;;11.20;3.20;;;7.00;99.90;;;;;;5032830;28;20198;-82
2021/12/20 03:49:05;;;;;;;8.97;2.83;;;7.20;99.90;;;;;;5063696;28;20465;-83
2021/12/20 03:51:31;;;;;;;15.27;3.40;;;7.30;99.90;;;;;;5033433;28;20432;-83
2021/12/20 03:53:56;;;;;;;9.57;3.17;;;6.90;99.90;;;;;;5038252;28;20455;-83
2021/12/20 03:56:22;;;;;;;16.30;4.03;;;6.90;99.90;;;;;;5039837;28;20481;-83
2021/12/20 03:58:48;;;;;;;8.67;3.13;;;6.90;99.90;;;;;;5058761;28;20209;-84
2021/12/20 04:01:13;;;;;;;11.10;3.17;;;7.10;99.90;;;;;;5046300;28;20257;-83
2021/12/20 04:03:41;;;;;;;15.30;3.03;;;6.90;99.90;;;;;;5029337;28;20713;-82
2021/12/20 04:06:08;;;;;;;12.07;2.47;;;7.00;99.90;;;;;;5039068;28;20225;-82
2021/12/20 04:08:35;;;;;;;9.80;2.73;;;7.20;99.90;;;;;;5062548;28;20461;-84
2021/12/20 04:11:01;;;;;;;8.73;4.10;;;6.90;99.90;;;;;;5080894;28;20418;-82
2021/12/20 04:13:27;;;;;;;10.80;3.33;;;6.90;99.90;;;;;;5055111;28;20427;-83
2021/12/20 04:15:53;;;;;;;7.43;2.73;;;6.90;99.90;;;;;;5062231;28;20414;-84
2021/12/20 04:18:20;;;;;;;7.03;3.53;;;7.00;99.90;;;;;;5073152;28;20820;-84
2021/12/20 04:20:46;;;;;;;11.37;3.10;;;6.80;99.90;;;;;;5036598;28;20519;-84
2021/12/20 04:23:11;;;;;;;12.17;3.17;;;6.80;99.90;;;;;;5042000;28;20443;-84
2021/12/20 04:25:37;;;;;;;12.20;3.80;;;6.90;99.90;;;;;;5061479;28;20199;-82
2021/12/20 04:28:03;;;;;;;10.70;2.80;;;7.00;99.90;;;;;;5073047;28;20463;-82
2021/12/20 04:30:31;;;;;;;10.30;2.70;;;7.10;99.90;;;;;;5060223;28;20228;-83
2021/12/20 04:32:57;;;;;;;9.47;3.00;;;6.90;99.90;;;;;;5062872;28;20431;-83
2021/12/20 04:35:23;;;;;;;8.37;2.80;;;7.00;99.90;;;;;;5078660;28;20458;-82
2021/12/20 04:37:51;;;;;;;12.17;4.03;;;6.90;99.90;;;;;;5078287;28;20463;-84
2021/12/20 04:40:21;;;;;;;12.37;2.50;;;6.90;99.90;;;;;;5048513;28;20429;-84
2021/12/20 04:43:06;;;;;;;13.17;3.17;;;7.10;99.90;;;;;;5078043;28;20964;-84
2021/12/20 04:45:32;;;;;;;8.40;2.53;;;7.00;99.90;;;;;;5056048;28;20434;-84
2021/12/20 04:47:58;;;;;;;14.27;3.30;;;7.00;99.90;;;;;;5051426;28;20506;-84
2021/12/20 04:50:25;;;;;;;12.80;3.27;;;7.00;99.90;;;;;;5026626;28;20419;-84
2021/12/20 04:52:54;;;;;;;13.30;3.93;;;7.00;99.90;;;;;;5041860;28;20432;-83
2021/12/20 04:55:20;;;;;;;10.47;2.80;;;7.30;99.90;;;;;;5057613;28;20424;-83
2021/12/20 04:57:47;;;;;;;8.00;2.70;;;6.90;99.90;;;;;;5060914;28;20474;-84
2021/12/20 05:00:17;;;;;;;9.87;2.23;;;7.00;99.90;;;;;;5073285;28;20192;-83
2021/12/20 05:02:43;;;;;;;9.60;2.70;;;7.10;99.90;;;;;;5058053;28;20415;-84
2021/12/20 05:05:10;;;;;;;11.30;3.37;;;7.20;99.90;;;;;;5040779;28;20440;-83
2021/12/20 05:07:38;;;;;;;15.57;3.50;;;7.10;99.90;;;;;;5039394;28;20249;-83
2021/12/20 05:10:08;;;;;;;6.93;2.80;;;6.90;99.90;;;;;;5054557;28;20501;-83
2021/12/20 05:12:34;;;;;;;14.20;4.00;;;7.30;99.90;;;;;;5070551;28;20427;-84
2021/12/20 05:14:59;;;;;;;20.50;4.40;;;7.10;99.90;;;;;;5059264;28;20930;-83
2021/12/20 05:17:25;;;;;;;10.23;3.13;;;7.00;99.90;;;;;;5060182;28;20312;-82
2021/12/20 05:19:50;;;;;;;12.63;4.47;;;6.90;99.90;;;;;;5078021;28;20177;-82
2021/12/20 05:22:16;;;;;;;14.03;4.53;;;7.00;99.90;;;;;;5044632;28;20188;-83
2021/12/20 05:24:42;;;;;;;10.90;3.50;;;7.10;99.90;;;;;;5060646;28;20173;-83
2021/12/20 05:27:08;;;;;;;12.93;3.70;;;7.00;99.90;;;;;;5060363;28;20242;-84
2021/12/20 05:29:33;;;;;;;12.80;2.77;;;6.80;99.90;;;;;;5061343;28;20189;-82
2021/12/20 05:32:02;;;;;;;10.67;3.37;;;7.20;99.90;;;;;;5043326;28;20245;-82
2021/12/20 05:34:28;;;;;;;13.10;3.33;;;6.80;99.90;;;;;;5040312;28;20722;-83
2021/12/20 05:36:53;;;;;;;15.73;3.50;;;7.00;99.90;;;;;;5032079;28;20473;-83
2021/12/20 05:39:19;;;;;;;12.73;3.40;;;6.50;99.90;;;;;;5043479;28;20213;-83
2021/12/20 05:41:45;;;;;;;13.70;3.40;;;6.70;99.90;;;;;;5049690;28;20189;-82
2021/12/20 05:44:11;;;;;;;14.60;3.20;;;6.80;99.90;;;;;;5073129;28;20197;-83
2021/12/20 05:46:36;;;;;;;11.20;3.40;;;6.60;99.90;;;;;;5076943;28;20201;-82
2021/12/20 05:49:02;;;;;;;9.70;3.10;;;6.70;99.90;;;;;;5042975;28;20448;-84
2021/12/20 05:51:28;;;;;;;7.50;3.10;;;6.60;99.90;;;;;;5041218;28;20217;-84
2021/12/20 05:53:54;;;;;;;13.53;3.87;;;6.40;99.90;;;;;;5056147;28;20197;-83
2021/12/20 05:56:20;;;;;;;11.90;3.30;;;6.30;99.90;;;;;;5061409;28;20492;-82
2021/12/20 05:58:45;;;;;;;13.30;3.00;;;6.30;99.90;;;;;;5049400;28;20458;-82
2021/12/20 06:01:11;;;;;;;12.97;3.73;;;6.20;99.90;;;;;;5028939;28;20272;-83
2021/12/20 06:03:37;;;;;;;12.77;3.13;;;6.20;99.90;;;;;;5033286;28;20194;-83
2021/12/20 06:06:02;;;;;;;12.70;4.60;;;6.10;99.90;;;;;;5062188;28;20195;-82
2021/12/20 06:08:28;;;;;;;12.30;3.40;;;6.20;99.90;;;;;;5038940;28;20906;-84
2021/12/20 06:10:54;;;;;;;19.10;4.03;;;6.10;99.90;;;;;;5058749;28;20188;-81
2021/12/20 06:13:19;;;;;;;19.03;4.00;;;6.20;99.90;;;;;;5060596;28;20207;-81
2021/12/20 06:15:45;;;;;;;13.77;4.90;;;6.00;99.90;;;;;;5041153;28;20257;-81
2021/12/20 06:18:11;;;;;;;16.20;4.90;;;5.80;99.90;;;;;;5038471;28;20227;-81
2021/12/20 06:20:38;;;;;;;9.20;3.10;;;6.00;99.90;;;;;;5061451;28;20244;-83
2021/12/20 06:23:03;;;;;;;12.00;3.90;;;5.90;99.90;;;;;;5058083;28;20285;-83
2021/12/20 06:25:29;;;;;;;11.13;3.90;;;6.00;99.90;;;;;;5070623;28;20890;-82
2021/12/20 06:27:55;;;;;;;12.87;4.00;;;5.90;99.90;;;;;;5056343;28;20220;-83
2021/12/20 06:30:20;;;;;;;14.10;4.67;;;5.90;99.90;;;;;;5040569;28;20200;-82
2021/12/20 06:32:47;;;;;;;12.47;4.47;;;5.80;99.90;;;;;;5056981;28;20276;-85
2021/12/20 06:35:13;;;;;;;12.63;4.03;;;5.60;99.90;;;;;;5072533;28;20177;-82
2021/12/20 06:37:42;;;;;;;10.47;4.50;;;5.70;99.90;;;;;;5044168;28;20484;-81
2021/12/20 06:40:09;;;;;;;12.47;3.83;;;5.70;99.90;;;;;;5058348;28;20424;-82
2021/12/20 06:42:37;;;;;;;13.90;4.10;;;5.60;99.90;;;;;;5058433;28;20444;-83
2021/12/20 06:45:05;;;;;;;12.20;4.80;;;5.50;99.90;;;;;;5038383;28;20957;-82
2021/12/20 06:47:31;;;;;;;12.80;4.47;;;5.20;99.90;;;;;;5057500;28;20436;-81
2021/12/20 06:49:57;;;;;;;9.50;3.93;;;5.40;99.90;;;;;;5040335;28;21303;-83
2021/12/20 06:52:23;;;;;;;16.00;4.50;;;5.10;99.90;;;;;;5038410;28;20452;-83
2021/12/20 06:54:51;;;;;;;13.67;3.73;;;5.20;99.90;;;;;;5034839;28;20215;-82
2021/12/20 06:57:16;;;;;;;11.13;3.57;;;5.40;99.90;;;;;;5038287;28;20217;-83
2021/12/20 06:59:42;;;;;;;11.60;4.00;;;5.30;99.90;;;;;;5057031;28;20435;-83
2021/12/20 07:02:08;;;;;;;13.97;3.87;;;5.10;99.90;;;;;;5044568;28;20211;-84
2021/12/20 07:04:33;;;;;;;14.27;3.57;;;5.10;99.90;;;;;;5042220;28;20185;-84
2021/12/20 07:06:59;;;;;;;13.07;4.03;;;5.10;99.90;;;;;;5078106;28;20189;-85
2021/12/20 07:09:25;;;;;;;10.80;6.13;;;5.00;99.90;;;;;;5066951;28;20213;-83
2021/12/20 07:11:51;;;;;;;10.27;3.43;;;5.20;99.90;;;;;;5071385;28;20570;-83
2021/12/20 07:14:16;;;;;;;17.93;4.00;;;5.20;99.90;;;;;;5072261;28;20193;-82
2021/12/20 07:16:42;;;;;;;11.50;4.17;;;5.00;99.90;;;;;;5079470;28;20217;-84
2021/12/20 07:19:08;;;;;;;10.50;3.40;;;4.80;99.90;;;;;;5046405;28;20265;-81
2021/12/20 07:21:34;;;;;;;13.57;3.73;;;5.00;99.90;;;;;;5081810;28;20230;-82
2021/12/20 07:24:00;;;;;;;11.13;4.20;;;4.90;99.90;;;;;;5061753;28;20424;-85
2021/12/20 07:26:26;;;;;;;13.13;4.93;;;4.80;99.90;;;;;;5046595;28;20427;-82
2021/12/20 07:28:51;;;;;;;9.80;3.70;;;4.90;99.90;;;;;;5038624;28;20201;-84
2021/12/20 07:31:19;;;;;;;14.23;4.60;;;4.80;99.90;;;;;;5041934;28;20451;-84
2021/12/20 07:33:44;;;;;;;17.07;4.30;;;4.80;99.90;;;;;;5054408;28;20823;-84
2021/12/20 07:36:14;;;;;;;15.87;4.20;;;4.70;99.90;;;;;;5081009;28;20415;-83
2021/12/20 07:38:39;;;;;;;16.27;3.63;;;4.80;99.90;;;;;;5043219;28;20202;-82
2021/12/20 07:41:05;;;;;;;11.63;3.73;;;4.60;99.90;;;;;;5044671;28;20486;-84
2021/12/20 07:43:31;;;;;;;10.70;4.13;;;4.60;99.90;;;;;;5057779;28;20218;-85
2021/12/20 07:45:57;;;;;;;12.20;4.00;;;4.60;99.90;;;;;;5067670;28;20207;-82
2021/12/20 07:48:22;;;;;;;13.70;4.90;;;4.60;99.90;;;;;;5016118;28;20677;-82
2021/12/20 07:50:49;;;;;;;13.73;4.13;;;4.70;99.90;;;;;;5043301;28;20186;-84
2021/12/20 07:53:15;;;;;;;11.87;3.80;;;4.80;99.90;;;;;;5073460;28;20189;-82
2021/12/20 07:55:41;;;;;;;14.73;4.70;;;4.80;99.90;;;;;;5080445;28;20808;-84
2021/12/20 07:58:07;;;;;;;12.53;3.80;;;4.70;99.90;;;;;;5062762;28;20471;-84
2021/12/20 08:00:33;;;;;;;15.73;5.33;;;4.90;99.90;;;;;;5062432;28;20516;-83
2021/12/20 08:03:00;;;;;;;14.87;4.50;;;5.00;99.90;;;;;;5080865;28;20189;-82
2021/12/20 08:05:27;;;;;;;10.83;4.07;;;4.80;99.90;;;;;;5057011;28;20420;-84
2021/12/20 08:07:53;;;;;;;16.43;5.07;;;4.90;99.90;;;;;;5074265;28;20528;-82
2021/12/20 08:10:24;;;;;;;13.77;4.10;;;4.90;99.90;;;;;;5040737;28;20830;-84
2021/12/20 08:12:51;;;;;;;17.73;4.00;;;5.00;99.90;;;;;;5025280;28;20419;-83
2021/12/20 08:15:17;;;;;;;17.13;5.00;;;4.90;99.90;;;;;;5075271;28;20432;-81
2021/12/20 08:17:43;;;;;;;15.13;5.90;;;4.80;99.90;;;;;;5059656;28;20475;-83
2021/12/20 08:20:10;;;;;;;15.33;5.30;;;5.00;99.90;;;;;;5035126;28;20424;-83
2021/12/20 08:22:36;;;;;;;17.63;4.40;;;5.10;99.90;;;;;;5050030;28;20181;-85
2021/12/20 08:25:03;;;;;;;15.50;5.27;;;5.00;99.90;;;;;;5038600;28;20509;-81
2021/12/20 08:27:29;;;;;;;14.03;4.80;;;4.90;99.90;;;;;;5012882;28;20297;-82
2021/12/20 08:29:55;;;;;;;18.57;5.03;;;5.20;99.90;;;;;;5080897;28;20480;-84
2021/12/20 08:32:20;;;;;;;13.93;4.40;;;5.20;99.90;;;;;;5045486;28;20624;-82
2021/12/20 08:34:46;;;;;;;14.80;4.97;;;5.40;99.90;;;;;;5056857;28;20174;-84
2021/12/20 08:37:12;;;;;;;17.60;4.80;;;5.70;99.90;;;;;;5044773;28;20206;-82
2021/12/20 08:39:37;;;;;;;13.50;5.00;;;5.80;99.90;;;;;;5052419;28;20713;-82
2021/12/20 08:42:04;;;;;;;9.40;4.10;;;5.60;99.90;;;;;;5076776;28;20192;-83
2021/12/20 08:44:31;;;;;;;14.33;4.70;;;5.70;99.90;;;;;;5056509;28;20269;-83
2021/12/20 08:46:58;;;;;;;16.07;5.53;;;5.80;99.90;;;;;;5044417;28;21002;-82
2021/12/20 08:49:25;;;;;;;15.93;5.70;;;6.10;99.90;;;;;;5046814;28;21031;-84
2021/12/20 08:51:52;;;;;;;12.03;4.70;;;6.30;99.90;;;;;;5063457;28;20429;-83
2021/12/20 08:54:18;;;;;;;12.73;5.10;;;6.30;99.90;;;;;;5079562;28;20824;-83
2021/12/20 08:56:44;;;;;;;12.10;5.20;;;6.50;99.90;;;;;;5033115;28;20463;-85
2021/12/20 08:59:10;;;;;;;11.27;4.80;;;6.60;99.90;;;;;;5079630;28;20197;-85
2021/12/20 09:01:36;;;;;;;16.30;4.90;;;7.00;99.90;;;;;;5062289;28;20268;-83
2021/12/20 09:04:04;;;;;;;13.43;5.83;;;6.80;99.90;;;;;;5078607;28;20423;-84
2021/12/20 09:06:30;;;;;;;13.13;5.43;;;7.20;99.90;;;;;;5062314;28;20442;-85
2021/12/20 09:08:57;;;;;;;17.53;5.20;;;7.20;99.90;;;;;;5042165;28;21253;-83
2021/12/20 09:11:23;;;;;;;15.07;5.30;;;7.60;99.90;;;;;;5076052;28;20426;-82
2021/12/20 09:13:49;;;;;;;14.93;3.90;;;7.90;99.90;;;;;;5034471;28;20425;-83
2021/12/20 09:16:15;;;;;;;11.97;4.63;;;8.00;99.90;;;;;;5075380;28;20473;-82
2021/12/20 09:18:41;;;;;;;18.47;4.83;;;8.10;99.90;;;;;;5059933;28;20447;-82
2021/12/20 09:21:10;;;;;;;17.60;4.43;;;8.70;99.90;;;;;;5044815;28;20435;-83
2021/12/20 09:23:36;;;;;;;15.60;4.57;;;8.80;99.90;;;;;;5067653;28;20782;-82
2021/12/20 09:26:03;;;;;;;11.47;4.00;;;8.90;99.90;;;;;;5047937;28;20427;-82
2021/12/20 09:28:29;;;;;;;11.60;4.00;;;9.10;99.90;;;;;;5060447;28;20438;-81
2021/12/20 09:30:54;;;;;;;11.37;4.00;;;9.00;99.90;;;;;;5053085;28;20983;-84
2021/12/20 09:33:20;;;;;;;10.80;3.63;;;9.20;99.90;;;;;;5043986;28;20435;-82
2021/12/20 09:35:47;;;;;;;21.53;4.70;;;9.40;99.90;;;;;;5041197;28;20678;-82
2021/12/20 09:38:16;;;;;;;13.20;4.33;;;9.70;99.90;;;;;;5076801;28;20495;-82
2021/12/20 09:41:01;;;;;;;11.17;4.13;;;9.70;99.90;;;;;;5042405;28;20439;-83
2021/12/20 09:43:27;;;;;;;14.43;4.83;;;10.10;99.90;;;;;;5055101;28;20432;-82
2021/12/20 09:45:55;;;;;;;16.57;4.80;;;10.30;99.90;;;;;;5060882;28;20455;-85
2021/12/20 09:48:21;;;;;;;12.53;4.30;;;10.70;99.90;;;;;;5045269;28;20459;-84
2021/12/20 09:50:47;;;;;;;13.70;5.23;;;10.50;99.90;;;;;;5060554;28;20434;-81
2021/12/20 09:53:14;;;;;;;14.57;5.83;;;10.50;99.90;;;;;;5034321;28;20227;-81
2021/12/20 09:55:45;;;;;;;11.53;5.50;;;10.50;99.90;;;;;;5060247;28;20424;-85
2021/12/20 09:58:11;;;;;;;15.03;5.07;;;10.50;99.90;;;;;;5078158;28;20558;-83
2021/12/20 10:00:37;;;;;;;13.13;4.60;;;11.40;99.90;;;;;;5039859;28;20467;-82
2021/12/20 10:03:04;;;;;;;21.13;4.97;;;11.70;99.90;;;;;;5056692;28;20184;-83
2021/12/20 10:05:30;;;;;;;18.17;5.90;;;12.10;99.90;;;;;;5031135;28;20424;-85
2021/12/20 10:07:58;;;;;;;18.73;4.80;;;12.40;99.90;;;;;;5054134;28;20451;-83
2021/12/20 10:10:34;;;;;;;23.80;5.30;;;12.70;99.90;;;;;;5060371;28;20422;-83
2021/12/20 10:13:00;;;;;;;12.77;4.67;;;13.10;99.90;;;;;;5063660;28;20966;-83
2021/12/20 10:15:34;;;;;;;13.63;4.60;;;13.20;99.90;;;;;;5076470;28;20435;-84
2021/12/20 10:18:00;;;;;;;11.63;4.67;;;13.20;99.90;;;;;;5068134;28;20471;-83
2021/12/20 10:20:31;;;;;;;12.57;5.10;;;13.30;99.70;;;;;;5077576;28;20456;-82
2021/12/20 10:23:11;;;;;;;13.67;4.83;;;13.30;99.70;;;;;;5054971;28;20427;-83
2021/12/20 10:25:39;;;;;;;15.77;4.93;;;13.40;99.40;;;;;;5043948;28;20419;-83
2021/12/20 10:28:05;;;;;;;15.83;5.53;;;13.30;99.20;;;;;;5075989;28;20476;-81
2021/12/20 10:30:38;;;;;;;15.77;6.10;;;12.80;99.70;;;;;;5058854;28;20516;-82
2021/12/20 10:33:04;;;;;;;12.13;4.73;;;12.10;99.90;;;;;;5031314;28;20243;-84
2021/12/20 10:35:37;;;;;;;11.23;4.70;;;11.50;99.90;;;;;;5060274;28;20451;-83
2021/12/20 10:38:22;;;;;;;17.83;5.27;;;11.20;99.90;;;;;;5042708;28;20510;-83
2021/12/20 10:40:54;;;;;;;13.03;4.30;;;11.00;99.90;;;;;;5063368;28;20437;-83
2021/12/20 10:43:32;;;;;;;9.57;3.33;;;10.90;99.90;;;;;;5064373;28;20407;-83
2021/12/20 10:45:58;;;;;;;9.53;3.93;;;10.80;99.90;;;;;;5080613;28;20427;-82
2021/12/20 10:48:32;;;;;;;13.47;3.90;;;10.80;99.90;;;;;;5042684;28;20505;-85
2021/12/20 10:50:58;;;;;;;10.90;4.20;;;10.90;99.90;;;;;;5064174;28;20431;-83
2021/12/20 10:53:26;;;;;;;8.60;3.37;;;10.90;99.90;;;;;;5062434;28;20411;-83
2021/12/20 10:55:58;;;;;;;10.60;4.07;;;10.90;99.90;;;;;;5055121;28;20420;-83
2021/12/20 10:58:32;;;;;;;8.63;4.27;;;10.80;99.90;;;;;;5028733;28;20510;-84
2021/12/20 11:04:04;;;;;;;7.70;3.50;;;10.40;99.90;;;;;;5051087;28;20468;-85
2021/12/20 11:06:56;;;;;;;9.87;3.60;;;10.10;99.90;;;;;;5061411;28;20427;-83
2021/12/20 11:09:25;;;;;;;13.03;3.87;;;9.90;99.90;;;;;;5068046;28;20434;-83
2021/12/20 11:12:11;;;;;;;17.23;4.67;;;9.80;99.90;;;;;;5057559;28;20448;-84
2021/12/20 11:14:40;;;;;;;10.23;3.80;;;9.70;99.90;;;;;;5061093;28;20865;-83
2021/12/20 11:17:08;;;;;;;9.70;3.87;;;9.60;99.90;;;;;;5064308;28;20459;-83
2021/12/20 11:19:42;;;;;;;9.40;3.83;;;9.50;99.90;;;;;;5079750;28;20423;-82
2021/12/20 11:22:20;;;;;;;9.03;3.50;;;9.50;99.90;;;;;;5065464;28;20423;-82
2021/12/20 11:24:49;;;;;;;11.50;4.60;;;9.50;99.90;;;;;;5066700;28;20423;-82
2021/12/20 11:27:18;;;;;;;8.63;3.37;;;9.60;99.90;;;;;;5050813;28;20424;-82
2021/12/20 11:29:45;;;;;;;10.93;3.80;;;9.60;99.90;;;;;;5047163;28;20432;-85
2021/12/20 11:32:12;;;;;;;9.80;3.57;;;9.60;99.90;;;;;;5078424;28;20459;-85
2021/12/20 11:34:41;;;;;;;8.63;3.30;;;9.40;99.90;;;;;;5064432;28;20431;-83
2021/12/20 11:37:08;;;;;;;6.57;3.07;;;9.60;99.90;;;;;;5047479;28;20494;-83
2021/12/20 11:39:34;;;;;;;9.10;3.33;;;9.30;99.90;;;;;;5053328;28;20932;-80
2021/12/20 11:42:00;;;;;;;10.40;3.63;;;9.60;99.90;;;;;;5045697;28;20422;-84
2021/12/20 11:44:28;;;;;;;8.20;3.00;;;9.70;99.90;;;;;;5038295;28;20427;-84
2021/12/20 11:47:08;;;;;;;9.70;2.80;;;10.10;99.90;;;;;;5057391;28;20514;-85
2021/12/20 11:49:35;;;;;;;6.20;2.90;;;10.40;99.80;;;;;;5083981;28;20423;-85
2021/12/20 11:52:14;;;;;;;6.70;2.87;;;11.10;98.70;;;;;;5081505;28;20782;-85
2021/12/20 11:54:52;;;;;;;10.00;3.10;;;13.10;96.40;;;;;;5079849;28;20502;-83
2021/12/20 11:57:30;;;;;;;8.53;2.67;;;15.10;92.50;;;;;;5066901;28;20541;-84
2021/12/20 12:00:20;;;;;;;7.90;3.00;;;17.70;82.80;;;;;;5049080;28;20415;-85
2021/12/20 12:02:48;;;;;;;7.37;2.37;;;19.50;70.10;;;;;;5076877;28;20425;-83
2021/12/20 12:05:36;;;;;;;6.67;2.90;;;20.50;61.10;;;;;;5065730;28;20776;-84
2021/12/20 12:08:30;;;;;;;5.27;3.07;;;21.40;57.70;;;;;;5052387;28;20441;-82
2021/12/20 12:11:05;;;;;;;5.13;2.60;;;20.30;56.10;;;;;;5082067;28;20418;-82
2021/12/20 12:17:06;;;;;;;4.10;2.70;;;20.20;56.10;;;;;;5054228;28;20513;-83
2021/12/20 12:19:44;;;;;;;6.60;2.10;;;20.80;53.40;;;;;;5070054;28;20455;-83
2021/12/20 12:22:33;;;;;;;5.23;2.30;;;18.70;53.80;;;;;;5050204;28;20504;-81
2021/12/20 12:24:59;;;;;;;4.10;2.37;;;16.00;57.30;;;;;;5064886;28;20407;-85
2021/12/20 12:27:30;;;;;;;4.30;2.17;;;14.50;62.70;;;;;;5033268;28;20515;-82
2021/12/20 12:30:14;;;;;;;3.60;1.53;;;13.40;65.60;;;;;;5079124;28;20268;-81
2021/12/20 12:32:49;;;;;;;4.53;1.63;;;12.40;68.40;;;;;;5055434;28;20431;-83
2021/12/20 12:35:39;;;;;;;2.17;1.13;;;11.60;69.10;;;;;;5062400;28;20415;-82
2021/12/20 12:38:15;;;;;;;3.40;1.23;;;11.10;69.30;;;;;;5048435;28;20475;-85
2021/12/20 12:40:43;;;;;;;2.80;1.40;;;10.50;73.80;;;;;;5047071;28;20417;-81
2021/12/20 12:43:09;;;;;;;2.70;1.50;;;10.30;72.60;;;;;;5035181;28;20471;-85
2021/12/20 12:45:50;;;;;;;3.33;1.10;;;10.10;75.60;;;;;;5042522;28;20441;-80
2021/12/20 12:48:43;;;;;;;3.60;0.80;;;10.00;77.00;;;;;;5061685;28;20439;-81
2021/12/20 12:51:19;;;;;;;2.07;1.00;;;9.70;77.90;;;;;;5054905;28;20419;-84
2021/12/20 12:53:48;;;;;;;3.87;1.17;;;9.50;82.70;;;;;;5048772;28;20442;-83
2021/12/20 12:56:23;;;;;;;2.47;1.33;;;9.50;82.30;;;;;;5063661;28;20473;-84
2021/12/20 12:59:17;;;;;;;3.83;1.00;;;9.40;82.20;;;;;;5066110;28;20439;-83
2021/12/20 13:01:57;;;;;;;4.63;1.20;;;9.40;83.80;;;;;;5080329;28;20411;-81
2021/12/20 13:04:54;;;;;;;1.80;1.30;;;9.00;85.20;;;;;;5074214;28;20494;-81
2021/12/20 13:07:28;;;;;;;4.60;1.43;;;8.80;87.60;;;;;;5053069;28;20437;-82
2021/12/20 13:10:02;;;;;;;3.87;1.70;;;8.70;88.40;;;;;;5075537;28;20428;-84